Main page
METAR-TAF:

Airports :

Podgorica, Montenegro

Podgorica Airport

latitude: 42-26N, longitude: 019-17E, elevation: 53 m

Current weather observation

The report was made 16 minutes ago, at 03:00 UTC
Wind 2 kt from variable directions
Temperature 14°C
Humidity 67%
Pressure 1027 hPa
Visibility 10 km or more
no clouds below 1500 m and no cumulonimbus

METAR: LYPG 290300Z VRB02KT CAVOK 14/08 Q1027 NOSIG

Time: 05:16 (03:16 UTC)

Forecast

The report was made 4 hours and 16 minutes ago, at 23:00 UTC
Forecast valid from 29 at 00 UTC to 29 at 24 UTC
Wind 5 kt from the North
Visibility 10 km or more
no clouds below 1500 m and no cumulonimbus

TAF: LYPG 282300Z 2900/2924 36005KT CAVOK TX27/2913Z TN13/2904Z

METAR-TAF

Weather observations and forecasts of more than 4000 airports (METAR and TAF reports).

The available stations are represented by yellow and red dots on the map.

Hover mouse over dot to see the name of the station.

Then click to see weather observations and forecasts.

To change the map : click on the green buttons with a black cross to zoom in, on the green button with a dash to zoom out, or on the green arrows for adjacent maps.


METAR-TAF: